Aviation Digital Data Service (ADDS)

Output produced by METARs form (1418 UTC 08 May 2021)
found at http://aviationweather.gov/metar/data/
 
KSHV 081120Z 0812/0912 17005KT P6SM SKC 
     FM081500 17017G22KT P6SM SCT250 
     FM090500 18019G25KT P6SM OVC250 
     FM090900 19012G20KT P6SM BKN025